sensor_id;sensor_type;location;lat;lon;timestamp;pressure;altitude;pressure_sealevel;temperature;humidity
72285;BME280;60220;53.552;10.092;2022-10-16T00:01:54;100702.59;;;15.35;74.68
72285;BME280;60220;53.552;10.092;2022-10-16T00:04:21;100701.47;;;15.42;75.26
72285;BME280;60220;53.552;10.092;2022-10-16T00:06:49;100698.00;;;14.58;77.74
72285;BME280;60220;53.552;10.092;2022-10-16T00:09:16;100701.22;;;14.95;76.26
72285;BME280;60220;53.552;10.092;2022-10-16T00:11:43;100706.63;;;14.92;76.79
72285;BME280;60220;53.552;10.092;2022-10-16T00:14:13;100711.47;;;15.06;76.54
72285;BME280;60220;53.552;10.092;2022-10-16T00:16:42;100703.84;;;14.69;77.46
72285;BME280;60220;53.552;10.092;2022-10-16T00:19:10;100704.69;;;14.97;76.88
72285;BME280;60220;53.552;10.092;2022-10-16T00:21:37;100702.78;;;15.02;77.16
72285;BME280;60220;53.552;10.092;2022-10-16T00:24:06;100700.94;;;14.77;78.13
72285;BME280;60220;53.552;10.092;2022-10-16T00:26:34;100705.75;;;14.64;78.27
72285;BME280;60220;53.552;10.092;2022-10-16T00:29:02;100706.19;;;14.78;77.92
72285;BME280;60220;53.552;10.092;2022-10-16T00:31:30;100711.31;;;14.84;78.76
72285;BME280;60220;53.552;10.092;2022-10-16T00:33:57;100714.41;;;14.69;78.45
72285;BME280;60220;53.552;10.092;2022-10-16T00:36:25;100711.41;;;14.52;78.93
72285;BME280;60220;53.552;10.092;2022-10-16T00:38:52;100716.19;;;14.39;79.45
72285;BME280;60220;53.552;10.092;2022-10-16T00:41:23;100719.69;;;14.69;78.94
72285;BME280;60220;53.552;10.092;2022-10-16T00:43:51;100719.41;;;14.49;80.40
72285;BME280;60220;53.552;10.092;2022-10-16T00:46:22;100728.28;;;14.46;80.29
72285;BME280;60220;53.552;10.092;2022-10-16T00:48:57;100725.63;;;14.46;79.04
72285;BME280;60220;53.552;10.092;2022-10-16T00:51:31;100726.19;;;14.57;78.54
72285;BME280;60220;53.552;10.092;2022-10-16T00:54:02;100736.34;;;14.42;79.40
72285;BME280;60220;53.552;10.092;2022-10-16T00:56:31;100733.47;;;14.18;80.68
72285;BME280;60220;53.552;10.092;2022-10-16T00:58:59;100729.53;;;14.01;81.29
72285;BME280;60220;53.552;10.092;2022-10-16T01:01:28;100735.84;;;13.95;81.60
72285;BME280;60220;53.552;10.092;2022-10-16T01:03:56;100732.81;;;13.78;82.07
72285;BME280;60220;53.552;10.092;2022-10-16T01:06:24;100732.19;;;13.68;82.83
72285;BME280;60220;53.552;10.092;2022-10-16T01:08:59;100735.28;;;13.84;82.90
72285;BME280;60220;53.552;10.092;2022-10-16T01:11:33;100734.34;;;13.85;82.71
72285;BME280;60220;53.552;10.092;2022-10-16T01:14:06;100738.72;;;13.88;82.01
72285;BME280;60220;53.552;10.092;2022-10-16T01:16:41;100745.31;;;14.35;79.90
72285;BME280;60220;53.552;10.092;2022-10-16T01:19:15;100745.50;;;13.64;83.20
72285;BME280;60220;53.552;10.092;2022-10-16T01:21:44;100748.97;;;13.98;81.96
72285;BME280;60220;53.552;10.092;2022-10-16T01:24:17;100747.66;;;13.82;82.07
72285;BME280;60220;53.552;10.092;2022-10-16T01:27:04;100753.41;;;13.64;83.20
72285;BME280;60220;53.552;10.092;2022-10-16T01:29:34;100758.53;;;14.02;81.43
72285;BME280;60220;53.552;10.092;2022-10-16T01:32:10;100756.59;;;13.75;81.89
72285;BME280;60220;53.552;10.092;2022-10-16T01:34:46;100755.81;;;13.73;81.71
72285;BME280;60220;53.552;10.092;2022-10-16T01:37:21;100760.66;;;13.90;80.99
72285;BME280;60220;53.552;10.092;2022-10-16T01:39:55;100755.41;;;13.88;80.49
72285;BME280;60220;53.552;10.092;2022-10-16T01:42:29;100750.13;;;14.53;79.63
72285;BME280;60220;53.552;10.092;2022-10-16T01:44:57;100753.94;;;14.43;78.70
72285;BME280;60220;53.552;10.092;2022-10-16T01:47:26;100762.84;;;14.39;78.64
72285;BME280;60220;53.552;10.092;2022-10-16T01:49:54;100758.44;;;14.05;78.83
72285;BME280;60220;53.552;10.092;2022-10-16T01:52:26;100755.13;;;13.99;79.25
72285;BME280;60220;53.552;10.092;2022-10-16T01:54:56;100749.81;;;14.31;78.66
72285;BME280;60220;53.552;10.092;2022-10-16T01:57:26;100748.41;;;14.19;78.60
72285;BME280;60220;53.552;10.092;2022-10-16T01:59:57;100763.81;;;14.02;78.64
72285;BME280;60220;53.552;10.092;2022-10-16T02:02:26;100750.19;;;13.85;78.57
72285;BME280;60220;53.552;10.092;2022-10-16T02:04:58;100758.69;;;13.64;78.85
72285;BME280;60220;53.552;10.092;2022-10-16T02:07:25;100754.53;;;13.54;79.87
72285;BME280;60220;53.552;10.092;2022-10-16T02:09:54;100753.09;;;13.41;80.44
72285;BME280;60220;53.552;10.092;2022-10-16T02:12:25;100755.34;;;13.56;78.97
72285;BME280;60220;53.552;10.092;2022-10-16T02:14:56;100754.41;;;13.60;78.72
72285;BME280;60220;53.552;10.092;2022-10-16T02:17:23;100752.66;;;13.59;78.29
72285;BME280;60220;53.552;10.092;2022-10-16T02:19:51;100751.31;;;13.76;78.39
72285;BME280;60220;53.552;10.092;2022-10-16T02:22:25;100759.25;;;13.75;77.65
72285;BME280;60220;53.552;10.092;2022-10-16T02:24:55;100760.44;;;13.63;78.99
72285;BME280;60220;53.552;10.092;2022-10-16T02:27:26;100768.38;;;13.62;79.29
72285;BME280;60220;53.552;10.092;2022-10-16T02:30:02;100764.31;;;13.13;81.14
72285;BME280;60220;53.552;10.092;2022-10-16T02:32:33;100767.59;;;13.92;76.97
72285;BME280;60220;53.552;10.092;2022-10-16T02:35:01;100766.88;;;13.52;78.65
72285;BME280;60220;53.552;10.092;2022-10-16T02:37:28;100765.88;;;13.20;80.23
72285;BME280;60220;53.552;10.092;2022-10-16T02:39:57;100766.16;;;13.08;80.29
72285;BME280;60220;53.552;10.092;2022-10-16T02:42:28;100766.75;;;13.21;80.20
72285;BME280;60220;53.552;10.092;2022-10-16T02:44:57;100757.03;;;13.24;80.08
72285;BME280;60220;53.552;10.092;2022-10-16T02:47:23;100754.16;;;12.95;80.36
72285;BME280;60220;53.552;10.092;2022-10-16T02:49:52;100749.38;;;13.14;80.37
72285;BME280;60220;53.552;10.092;2022-10-16T02:52:19;100763.31;;;13.17;79.58
72285;BME280;60220;53.552;10.092;2022-10-16T02:54:45;100768.16;;;13.71;77.36
72285;BME280;60220;53.552;10.092;2022-10-16T02:57:12;100768.38;;;13.26;78.80
72285;BME280;60220;53.552;10.092;2022-10-16T02:59:38;100766.50;;;13.31;78.88
72285;BME280;60220;53.552;10.092;2022-10-16T03:02:09;100766.97;;;13.49;77.76
72285;BME280;60220;53.552;10.092;2022-10-16T03:04:36;100771.81;;;13.30;78.12
72285;BME280;60220;53.552;10.092;2022-10-16T03:07:02;100764.22;;;13.16;78.68
72285;BME280;60220;53.552;10.092;2022-10-16T03:09:29;100760.88;;;13.08;78.70
72285;BME280;60220;53.552;10.092;2022-10-16T03:11:55;100762.41;;;13.20;78.21
72285;BME280;60220;53.552;10.092;2022-10-16T03:14:22;100758.66;;;12.90;79.57
72285;BME280;60220;53.552;10.092;2022-10-16T03:16:51;100755.97;;;12.51;80.64
72285;BME280;60220;53.552;10.092;2022-10-16T03:19:20;100755.94;;;12.53;80.80
72285;BME280;60220;53.552;10.092;2022-10-16T03:21:46;100754.50;;;12.38;81.28
72285;BME280;60220;53.552;10.092;2022-10-16T03:24:13;100757.00;;;12.44;81.01
72285;BME280;60220;53.552;10.092;2022-10-16T03:26:39;100754.09;;;12.57;80.75
72285;BME280;60220;53.552;10.092;2022-10-16T03:29:06;100758.66;;;12.50;80.34
72285;BME280;60220;53.552;10.092;2022-10-16T03:31:32;100763.31;;;12.79;79.49
72285;BME280;60220;53.552;10.092;2022-10-16T03:33:59;100755.94;;;12.94;79.56
72285;BME280;60220;53.552;10.092;2022-10-16T03:36:27;100764.00;;;12.85;78.63
72285;BME280;60220;53.552;10.092;2022-10-16T03:38:53;100758.69;;;12.88;78.61
72285;BME280;60220;53.552;10.092;2022-10-16T03:41:20;100769.13;;;12.51;80.28
72285;BME280;60220;53.552;10.092;2022-10-16T03:43:47;100772.78;;;12.86;78.89
72285;BME280;60220;53.552;10.092;2022-10-16T03:46:13;100778.97;;;12.42;80.55
72285;BME280;60220;53.552;10.092;2022-10-16T03:48:40;100775.06;;;12.63;80.05
72285;BME280;60220;53.552;10.092;2022-10-16T03:51:06;100777.44;;;12.75;79.40
72285;BME280;60220;53.552;10.092;2022-10-16T03:53:34;100779.47;;;12.61;79.68
72285;BME280;60220;53.552;10.092;2022-10-16T03:56:01;100779.25;;;12.71;79.80
72285;BME280;60220;53.552;10.092;2022-10-16T03:58:28;100772.28;;;12.69;79.16
72285;BME280;60220;53.552;10.092;2022-10-16T04:00:54;100779.78;;;12.45;80.41
72285;BME280;60220;53.552;10.092;2022-10-16T04:03:21;100773.84;;;12.77;79.59
72285;BME280;60220;53.552;10.092;2022-10-16T04:05:48;100781.94;;;12.70;79.44
72285;BME280;60220;53.552;10.092;2022-10-16T04:08:15;100793.38;;;12.69;79.23
72285;BME280;60220;53.552;10.092;2022-10-16T04:10:43;100789.59;;;12.39;80.02
72285;BME280;60220;53.552;10.092;2022-10-16T04:13:10;100803.63;;;12.81;79.15
72285;BME280;60220;53.552;10.092;2022-10-16T04:15:36;100802.28;;;12.62;79.10
72285;BME280;60220;53.552;10.092;2022-10-16T04:18:03;100801.41;;;12.61;79.44
72285;BME280;60220;53.552;10.092;2022-10-16T04:20:33;100800.81;;;12.48;80.40
72285;BME280;60220;53.552;10.092;2022-10-16T04:23:00;100810.03;;;12.69;79.32
72285;BME280;60220;53.552;10.092;2022-10-16T04:25:27;100818.44;;;12.43;80.00
72285;BME280;60220;53.552;10.092;2022-10-16T04:27:55;100818.63;;;12.34;80.56
72285;BME280;60220;53.552;10.092;2022-10-16T04:30:22;100820.28;;;12.40;79.91
72285;BME280;60220;53.552;10.092;2022-10-16T04:32:49;100813.44;;;12.74;78.82
72285;BME280;60220;53.552;10.092;2022-10-16T04:35:16;100811.50;;;12.82;79.26
72285;BME280;60220;53.552;10.092;2022-10-16T04:37:42;100810.84;;;12.73;78.30
72285;BME280;60220;53.552;10.092;2022-10-16T04:40:10;100817.56;;;12.86;78.43
72285;BME280;60220;53.552;10.092;2022-10-16T04:42:36;100825.16;;;12.60;78.71
72285;BME280;60220;53.552;10.092;2022-10-16T04:45:05;100824.31;;;12.58;79.39
72285;BME280;60220;53.552;10.092;2022-10-16T04:47:32;100824.75;;;12.79;78.44
72285;BME280;60220;53.552;10.092;2022-10-16T04:49:59;100827.63;;;12.67;78.50
72285;BME280;60220;53.552;10.092;2022-10-16T04:52:30;100833.00;;;12.63;78.65
72285;BME280;60220;53.552;10.092;2022-10-16T04:54:57;100832.81;;;12.70;79.41
72285;BME280;60220;53.552;10.092;2022-10-16T04:57:26;100828.25;;;12.80;78.45
72285;BME280;60220;53.552;10.092;2022-10-16T04:59:53;100832.13;;;12.61;79.09
72285;BME280;60220;53.552;10.092;2022-10-16T05:02:21;100832.78;;;12.72;78.97
72285;BME280;60220;53.552;10.092;2022-10-16T05:04:47;100819.94;;;12.57;79.24
72285;BME280;60220;53.552;10.092;2022-10-16T05:07:14;100848.09;;;12.55;78.65
72285;BME280;60220;53.552;10.092;2022-10-16T05:09:40;100845.81;;;12.79;78.16
72285;BME280;60220;53.552;10.092;2022-10-16T05:12:07;100844.28;;;12.69;79.14
72285;BME280;60220;53.552;10.092;2022-10-16T05:14:36;100850.81;;;12.48;80.12
72285;BME280;60220;53.552;10.092;2022-10-16T05:17:02;100851.03;;;12.38;80.60
72285;BME280;60220;53.552;10.092;2022-10-16T05:19:33;100852.22;;;12.66;79.63
72285;BME280;60220;53.552;10.092;2022-10-16T05:22:02;100863.81;;;12.56;79.47
72285;BME280;60220;53.552;10.092;2022-10-16T05:24:30;100869.97;;;12.57;79.24
72285;BME280;60220;53.552;10.092;2022-10-16T05:26:57;100867.41;;;12.54;79.34
72285;BME280;60220;53.552;10.092;2022-10-16T05:29:24;100866.72;;;12.44;80.24
72285;BME280;60220;53.552;10.092;2022-10-16T05:31:51;100865.53;;;12.60;79.11
72285;BME280;60220;53.552;10.092;2022-10-16T05:34:18;100871.53;;;12.67;78.83
72285;BME280;60220;53.552;10.092;2022-10-16T05:36:46;100876.59;;;12.77;78.82
72285;BME280;60220;53.552;10.092;2022-10-16T05:39:14;100873.94;;;12.33;80.08
72285;BME280;60220;53.552;10.092;2022-10-16T05:41:41;100876.13;;;12.56;79.59
72285;BME280;60220;53.552;10.092;2022-10-16T05:44:08;100871.72;;;12.58;79.74
72285;BME280;60220;53.552;10.092;2022-10-16T05:46:35;100880.09;;;12.78;78.99
72285;BME280;60220;53.552;10.092;2022-10-16T05:49:02;100868.03;;;12.66;79.11
72285;BME280;60220;53.552;10.092;2022-10-16T05:51:31;100867.03;;;12.72;79.08
72285;BME280;60220;53.552;10.092;2022-10-16T05:53:58;100866.25;;;12.67;79.48
72285;BME280;60220;53.552;10.092;2022-10-16T05:56:25;100865.84;;;12.88;78.48
72285;BME280;60220;53.552;10.092;2022-10-16T05:58:52;100868.59;;;12.36;79.98
72285;BME280;60220;53.552;10.092;2022-10-16T06:01:19;100871.88;;;12.50;79.76
72285;BME280;60220;53.552;10.092;2022-10-16T06:03:46;100888.22;;;12.66;79.86
72285;BME280;60220;53.552;10.092;2022-10-16T06:06:14;100883.25;;;12.50;79.83
72285;BME280;60220;53.552;10.092;2022-10-16T06:08:42;100877.84;;;12.60;79.51
72285;BME280;60220;53.552;10.092;2022-10-16T06:11:14;100876.97;;;12.58;79.47
72285;BME280;60220;53.552;10.092;2022-10-16T06:13:41;100879.69;;;12.55;80.06
72285;BME280;60220;53.552;10.092;2022-10-16T06:16:10;100884.84;;;12.59;79.42
72285;BME280;60220;53.552;10.092;2022-10-16T06:18:38;100890.41;;;12.44;80.34
72285;BME280;60220;53.552;10.092;2022-10-16T06:21:08;100888.56;;;12.47;80.10
72285;BME280;60220;53.552;10.092;2022-10-16T06:23:35;100887.50;;;12.59;79.71
72285;BME280;60220;53.552;10.092;2022-10-16T06:26:06;100886.44;;;12.68;79.28
72285;BME280;60220;53.552;10.092;2022-10-16T06:28:35;100890.22;;;12.55;80.20
72285;BME280;60220;53.552;10.092;2022-10-16T06:31:02;100895.19;;;12.70;79.40
72285;BME280;60220;53.552;10.092;2022-10-16T06:33:32;100902.53;;;12.97;78.67
72285;BME280;60220;53.552;10.092;2022-10-16T06:36:02;100896.69;;;12.83;79.38
72285;BME280;60220;53.552;10.092;2022-10-16T06:38:29;100912.84;;;12.65;79.59
72285;BME280;60220;53.552;10.092;2022-10-16T06:40:56;100906.91;;;12.52;80.59
72285;BME280;60220;53.552;10.092;2022-10-16T06:43:23;100914.72;;;12.57;80.58
72285;BME280;60220;53.552;10.092;2022-10-16T06:45:52;100908.06;;;12.85;79.41
72285;BME280;60220;53.552;10.092;2022-10-16T06:48:18;100911.22;;;13.02;78.78
72285;BME280;60220;53.552;10.092;2022-10-16T06:50:55;100909.44;;;12.60;80.36
72285;BME280;60220;53.552;10.092;2022-10-16T06:53:21;100907.31;;;12.77;79.82
72285;BME280;60220;53.552;10.092;2022-10-16T06:55:48;100916.13;;;12.76;80.39
72285;BME280;60220;53.552;10.092;2022-10-16T06:58:14;100913.34;;;13.68;77.10
72285;BME280;60220;53.552;10.092;2022-10-16T07:00:41;100926.88;;;13.53;77.02
72285;BME280;60220;53.552;10.092;2022-10-16T07:03:11;100928.31;;;13.66;76.71
72285;BME280;60220;53.552;10.092;2022-10-16T07:05:38;100935.19;;;14.45;74.85
72285;BME280;60220;53.552;10.092;2022-10-16T07:08:04;100933.72;;;13.98;75.56
72285;BME280;60220;53.552;10.092;2022-10-16T07:10:31;100934.09;;;13.82;77.06
72285;BME280;60220;53.552;10.092;2022-10-16T07:12:58;100947.72;;;14.39;75.54
72285;BME280;60220;53.552;10.092;2022-10-16T07:15:25;100947.72;;;15.03;72.71
72285;BME280;60220;53.552;10.092;2022-10-16T07:17:52;100952.59;;;13.80;76.63
72285;BME280;60220;53.552;10.092;2022-10-16T07:20:20;100948.31;;;14.13;76.50
72285;BME280;60220;53.552;10.092;2022-10-16T07:22:47;100952.66;;;14.51;75.88
72285;BME280;60220;53.552;10.092;2022-10-16T07:25:13;100958.28;;;14.39;75.84
72285;BME280;60220;53.552;10.092;2022-10-16T07:27:40;100957.16;;;14.12;76.98
72285;BME280;60220;53.552;10.092;2022-10-16T07:30:07;100962.06;;;14.26;76.07
72285;BME280;60220;53.552;10.092;2022-10-16T07:32:36;100958.56;;;14.60;75.08
72285;BME280;60220;53.552;10.092;2022-10-16T07:35:06;100957.41;;;14.01;77.37
72285;BME280;60220;53.552;10.092;2022-10-16T07:37:34;100969.78;;;14.36;76.79
72285;BME280;60220;53.552;10.092;2022-10-16T07:40:01;100976.31;;;14.89;74.69
72285;BME280;60220;53.552;10.092;2022-10-16T07:42:27;100979.53;;;14.68;76.14
72285;BME280;60220;53.552;10.092;2022-10-16T07:44:54;100978.16;;;14.53;75.68
72285;BME280;60220;53.552;10.092;2022-10-16T07:47:20;100990.03;;;14.70;76.66
72285;BME280;60220;53.552;10.092;2022-10-16T07:49:47;100987.50;;;14.65;75.64
72285;BME280;60220;53.552;10.092;2022-10-16T07:52:14;100988.44;;;14.96;75.37
72285;BME280;60220;53.552;10.092;2022-10-16T07:54:44;100999.94;;;15.28;74.31
72285;BME280;60220;53.552;10.092;2022-10-16T07:57:10;101001.41;;;15.38;73.94
72285;BME280;60220;53.552;10.092;2022-10-16T07:59:37;101001.06;;;14.85;74.66
72285;BME280;60220;53.552;10.092;2022-10-16T08:02:07;100995.13;;;15.09;74.51
72285;BME280;60220;53.552;10.092;2022-10-16T08:04:33;100997.75;;;15.42;73.87
72285;BME280;60220;53.552;10.092;2022-10-16T08:07:00;100998.75;;;15.38;73.98
72285;BME280;60220;53.552;10.092;2022-10-16T08:09:26;100997.09;;;15.65;72.43
72285;BME280;60220;53.552;10.092;2022-10-16T08:11:54;100995.69;;;15.53;72.60
72285;BME280;60220;53.552;10.092;2022-10-16T08:14:21;101003.13;;;15.70;72.40
72285;BME280;60220;53.552;10.092;2022-10-16T08:16:47;101001.44;;;15.36;73.16
72285;BME280;60220;53.552;10.092;2022-10-16T08:19:14;101009.69;;;14.93;75.26
72285;BME280;60220;53.552;10.092;2022-10-16T08:21:41;101012.72;;;15.43;73.52
72285;BME280;60220;53.552;10.092;2022-10-16T08:24:08;101017.78;;;15.50;73.13
72285;BME280;60220;53.552;10.092;2022-10-16T08:26:34;101021.97;;;14.94;74.93
72285;BME280;60220;53.552;10.092;2022-10-16T08:29:02;101018.78;;;15.77;72.54
72285;BME280;60220;53.552;10.092;2022-10-16T08:31:29;101020.94;;;15.00;74.94
72285;BME280;60220;53.552;10.092;2022-10-16T08:33:55;101018.22;;;15.66;72.36
72285;BME280;60220;53.552;10.092;2022-10-16T08:36:24;101020.75;;;15.71;71.79
72285;BME280;60220;53.552;10.092;2022-10-16T08:38:51;101020.16;;;15.61;72.54
72285;BME280;60220;53.552;10.092;2022-10-16T08:44:33;101014.69;;;15.67;72.17
72285;BME280;60220;53.552;10.092;2022-10-16T08:47:12;101017.25;;;16.26;70.55
72285;BME280;60220;53.552;10.092;2022-10-16T08:49:41;101014.13;;;16.41;69.86
72285;BME280;60220;53.552;10.092;2022-10-16T08:52:10;101016.69;;;16.70;68.83
72285;BME280;60220;53.552;10.092;2022-10-16T08:54:41;101021.88;;;15.62;70.81
72285;BME280;60220;53.552;10.092;2022-10-16T08:57:13;101020.63;;;16.31;69.49
72285;BME280;60220;53.552;10.092;2022-10-16T08:59:42;101023.22;;;15.77;70.34
72285;BME280;60220;53.552;10.092;2022-10-16T09:02:25;101038.16;;;16.07;70.31
72285;BME280;60220;53.552;10.092;2022-10-16T09:05:03;101038.00;;;15.84;71.45
72285;BME280;60220;53.552;10.092;2022-10-16T09:07:46;101048.00;;;15.42;72.05
72285;BME280;60220;53.552;10.092;2022-10-16T09:10:26;101048.31;;;16.21;70.00
72285;BME280;60220;53.552;10.092;2022-10-16T09:13:02;101047.47;;;16.48;68.98
72285;BME280;60220;53.552;10.092;2022-10-16T09:15:39;101062.38;;;15.64;71.12
72285;BME280;60220;53.552;10.092;2022-10-16T09:18:13;101061.44;;;15.96;71.16
72285;BME280;60220;53.552;10.092;2022-10-16T09:20:47;101050.13;;;16.48;68.88
72285;BME280;60220;53.552;10.092;2022-10-16T09:23:18;101054.59;;;16.46;68.96
72285;BME280;60220;53.552;10.092;2022-10-16T09:25:49;101056.00;;;17.09;67.03
72285;BME280;60220;53.552;10.092;2022-10-16T09:28:17;101061.91;;;16.92;68.25
72285;BME280;60220;53.552;10.092;2022-10-16T09:30:45;101065.63;;;17.13;66.42
72285;BME280;60220;53.552;10.092;2022-10-16T09:33:14;101058.41;;;16.65;68.24
72285;BME280;60220;53.552;10.092;2022-10-16T09:35:43;101055.34;;;16.77;67.30
72285;BME280;60220;53.552;10.092;2022-10-16T09:38:23;101073.28;;;16.96;66.01
72285;BME280;60220;53.552;10.092;2022-10-16T09:40:51;101071.66;;;16.65;65.30
72285;BME280;60220;53.552;10.092;2022-10-16T09:43:23;101070.63;;;16.96;64.85
72285;BME280;60220;53.552;10.092;2022-10-16T09:45:55;101076.50;;;17.30;63.91
72285;BME280;60220;53.552;10.092;2022-10-16T09:48:22;101075.84;;;17.48;63.22
72285;BME280;60220;53.552;10.092;2022-10-16T09:50:56;101072.38;;;16.97;64.62
72285;BME280;60220;53.552;10.092;2022-10-16T09:53:38;101071.91;;;16.84;64.72
72285;BME280;60220;53.552;10.092;2022-10-16T09:56:05;101080.47;;;17.43;64.01
72285;BME280;60220;53.552;10.092;2022-10-16T09:58:32;101084.59;;;17.01;63.56
72285;BME280;60220;53.552;10.092;2022-10-16T10:01:01;101100.16;;;17.11;63.80
72285;BME280;60220;53.552;10.092;2022-10-16T10:03:35;101098.97;;;16.94;63.62
72285;BME280;60220;53.552;10.092;2022-10-16T10:06:22;101101.81;;;17.14;62.82
72285;BME280;60220;53.552;10.092;2022-10-16T10:09:02;101102.84;;;16.56;64.53
72285;BME280;60220;53.552;10.092;2022-10-16T10:11:40;101112.53;;;16.57;64.51
72285;BME280;60220;53.552;10.092;2022-10-16T10:14:16;101108.59;;;16.98;64.47
72285;BME280;60220;53.552;10.092;2022-10-16T10:16:44;101111.59;;;17.13;63.38
72285;BME280;60220;53.552;10.092;2022-10-16T10:19:14;101112.88;;;16.74;63.64
72285;BME280;60220;53.552;10.092;2022-10-16T10:21:41;101125.09;;;17.06;64.33
72285;BME280;60220;53.552;10.092;2022-10-16T10:24:11;101118.06;;;17.05;63.10
72285;BME280;60220;53.552;10.092;2022-10-16T10:26:38;101113.47;;;17.10;63.25
72285;BME280;60220;53.552;10.092;2022-10-16T10:29:12;101115.00;;;17.42;62.27
72285;BME280;60220;53.552;10.092;2022-10-16T10:31:48;101115.59;;;16.72;63.69
72285;BME280;60220;53.552;10.092;2022-10-16T10:34:32;101112.41;;;17.40;62.65
72285;BME280;60220;53.552;10.092;2022-10-16T10:37:10;101124.75;;;18.14;60.18
72285;BME280;60220;53.552;10.092;2022-10-16T10:39:46;101120.53;;;17.85;61.03
72285;BME280;60220;53.552;10.092;2022-10-16T10:42:25;101124.75;;;17.68;60.64
72285;BME280;60220;53.552;10.092;2022-10-16T10:45:01;101134.13;;;17.51;61.65
72285;BME280;60220;53.552;10.092;2022-10-16T10:47:41;101130.03;;;17.68;61.28
72285;BME280;60220;53.552;10.092;2022-10-16T10:50:14;101133.06;;;18.05;60.47
72285;BME280;60220;53.552;10.092;2022-10-16T10:52:56;101124.81;;;17.64;60.15
72285;BME280;60220;53.552;10.092;2022-10-16T10:55:31;101126.41;;;17.93;59.65
72285;BME280;60220;53.552;10.092;2022-10-16T10:58:32;101132.28;;;17.53;59.45
72285;BME280;60220;53.552;10.092;2022-10-16T11:01:06;101136.13;;;18.18;58.91
72285;BME280;60220;53.552;10.092;2022-10-16T11:03:46;101134.44;;;18.62;57.87
72285;BME280;60220;53.552;10.092;2022-10-16T11:06:20;101139.78;;;17.92;58.66
72285;BME280;60220;53.552;10.092;2022-10-16T11:08:53;101126.22;;;17.75;58.54
72285;BME280;60220;53.552;10.092;2022-10-16T11:11:24;101140.13;;;17.56;59.74
72285;BME280;60220;53.552;10.092;2022-10-16T11:13:57;101142.84;;;18.28;58.61
72285;BME280;60220;53.552;10.092;2022-10-16T11:16:27;101138.38;;;17.82;58.69
72285;BME280;60220;53.552;10.092;2022-10-16T11:18:59;101128.66;;;18.04;58.06
72285;BME280;60220;53.552;10.092;2022-10-16T11:21:34;101138.50;;;18.25;56.86
72285;BME280;60220;53.552;10.092;2022-10-16T11:24:13;101137.97;;;18.16;56.56
72285;BME280;60220;53.552;10.092;2022-10-16T11:26:43;101152.94;;;17.95;56.63
72285;BME280;60220;53.552;10.092;2022-10-16T11:29:16;101146.97;;;17.63;57.03
72285;BME280;60220;53.552;10.092;2022-10-16T11:31:48;101149.81;;;18.07;56.08
72285;BME280;60220;53.552;10.092;2022-10-16T11:34:22;101155.16;;;18.07;56.62
72285;BME280;60220;53.552;10.092;2022-10-16T11:36:56;101160.34;;;18.57;54.83
72285;BME280;60220;53.552;10.092;2022-10-16T11:39:26;101166.69;;;18.29;55.76
72285;BME280;60220;53.552;10.092;2022-10-16T11:42:01;101169.84;;;17.92;56.07
72285;BME280;60220;53.552;10.092;2022-10-16T11:44:38;101172.66;;;17.38;56.98
72285;BME280;60220;53.552;10.092;2022-10-16T11:47:15;101176.22;;;17.37;57.17
72285;BME280;60220;53.552;10.092;2022-10-16T11:49:53;101182.47;;;17.86;56.88
72285;BME280;60220;53.552;10.092;2022-10-16T11:52:28;101185.19;;;17.59;57.57
72285;BME280;60220;53.552;10.092;2022-10-16T11:54:59;101195.59;;;17.39;58.00
72285;BME280;60220;53.552;10.092;2022-10-16T11:57:32;101182.31;;;17.66;57.56
72285;BME280;60220;53.552;10.092;2022-10-16T12:00:02;101190.50;;;17.84;56.77
72285;BME280;60220;53.552;10.092;2022-10-16T12:02:46;101187.25;;;18.47;55.62
72285;BME280;60220;53.552;10.092;2022-10-16T12:05:25;101194.59;;;18.64;55.51
72285;BME280;60220;53.552;10.092;2022-10-16T12:08:05;101198.19;;;17.92;57.44
72285;BME280;60220;53.552;10.092;2022-10-16T12:10:33;101200.78;;;18.65;55.53
72285;BME280;60220;53.552;10.092;2022-10-16T12:13:03;101198.13;;;18.41;55.69
72285;BME280;60220;53.552;10.092;2022-10-16T12:15:31;101208.81;;;18.63;53.86
72285;BME280;60220;53.552;10.092;2022-10-16T12:17:58;101208.28;;;18.54;53.36
72285;BME280;60220;53.552;10.092;2022-10-16T12:20:31;101204.78;;;18.05;52.69
72285;BME280;60220;53.552;10.092;2022-10-16T12:23:01;101209.78;;;17.89;53.42
72285;BME280;60220;53.552;10.092;2022-10-16T12:25:30;101215.56;;;18.48;53.94
72285;BME280;60220;53.552;10.092;2022-10-16T12:28:00;101220.53;;;18.11;52.16
72285;BME280;60220;53.552;10.092;2022-10-16T12:30:29;101233.25;;;18.26;52.06
72285;BME280;60220;53.552;10.092;2022-10-16T12:33:01;101233.22;;;18.03;52.83
72285;BME280;60220;53.552;10.092;2022-10-16T12:35:32;101239.53;;;17.99;53.38
72285;BME280;60220;53.552;10.092;2022-10-16T12:38:16;101238.75;;;17.72;53.96
72285;BME280;60220;53.552;10.092;2022-10-16T12:40:47;101236.78;;;17.77;53.62
72285;BME280;60220;53.552;10.092;2022-10-16T12:43:34;101236.88;;;17.99;53.14
72285;BME280;60220;53.552;10.092;2022-10-16T12:46:21;101238.53;;;18.03;53.20
72285;BME280;60220;53.552;10.092;2022-10-16T12:48:48;101247.72;;;18.42;52.39
72285;BME280;60220;53.552;10.092;2022-10-16T12:51:25;101252.28;;;17.89;52.77
72285;BME280;60220;53.552;10.092;2022-10-16T12:53:59;101251.69;;;18.06;53.18
72285;BME280;60220;53.552;10.092;2022-10-16T12:56:36;101265.19;;;18.00;51.55
72285;BME280;60220;53.552;10.092;2022-10-16T12:59:14;101263.25;;;18.05;52.06